Terminal Aerodrome Forecast
Issued by NWS Sioux Falls, SD

Home | Current Version | Previous Version | Text Only | Print | Product List | Glossary On
Versions: 1 2 3 4 5 6 7 8 9 10 11 12 13
571
FTUS43 KFSD 211720
TAFFSD
TAF
KFSD 211720Z 2118/2218 16010G23KT P6SM SCT250
     FM220200 15009KT P6SM SKC
     FM220900 16012KT P6SM SCT250 WS020/17040KT
     FM221300 16014KT P6SM SCT200
     FM221500 16015G23KT P6SM BKN100=

USA.gov is the U.S. government's official web portal to all federal, state and local government web resources and services.